sensor_id;sensor_type;location;lat;lon;timestamp;temperature;humidity
10453;DHT22;5274;51.992;8.518;2022-07-23T00:00:32;14.30;99.90
10453;DHT22;5274;51.992;8.518;2022-07-23T00:02:57;14.20;99.90
10453;DHT22;5274;51.992;8.518;2022-07-23T00:05:23;14.20;99.90
10453;DHT22;5274;51.992;8.518;2022-07-23T00:07:48;14.30;99.90
10453;DHT22;5274;51.992;8.518;2022-07-23T00:10:14;14.30;99.90
10453;DHT22;5274;51.992;8.518;2022-07-23T00:12:40;14.30;99.90
10453;DHT22;5274;51.992;8.518;2022-07-23T00:15:06;14.30;99.90
10453;DHT22;5274;51.992;8.518;2022-07-23T00:17:32;14.30;99.90
10453;DHT22;5274;51.992;8.518;2022-07-23T00:19:57;14.30;99.90
10453;DHT22;5274;51.992;8.518;2022-07-23T00:22:23;14.40;99.90
10453;DHT22;5274;51.992;8.518;2022-07-23T00:24:49;14.60;99.90
10453;DHT22;5274;51.992;8.518;2022-07-23T00:27:14;14.40;99.90
10453;DHT22;5274;51.992;8.518;2022-07-23T00:29:40;14.50;99.90
10453;DHT22;5274;51.992;8.518;2022-07-23T00:32:05;14.40;99.90
10453;DHT22;5274;51.992;8.518;2022-07-23T00:34:31;14.50;99.90
10453;DHT22;5274;51.992;8.518;2022-07-23T00:36:56;14.40;99.90
10453;DHT22;5274;51.992;8.518;2022-07-23T00:39:22;14.50;99.90
10453;DHT22;5274;51.992;8.518;2022-07-23T00:41:48;14.50;99.90
10453;DHT22;5274;51.992;8.518;2022-07-23T00:44:32;14.50;99.90
10453;DHT22;5274;51.992;8.518;2022-07-23T00:46:58;14.50;99.90
10453;DHT22;5274;51.992;8.518;2022-07-23T00:49:26;14.50;99.90
10453;DHT22;5274;51.992;8.518;2022-07-23T00:51:52;14.50;99.90
10453;DHT22;5274;51.992;8.518;2022-07-23T00:54:19;14.50;99.90
10453;DHT22;5274;51.992;8.518;2022-07-23T00:56:45;14.50;99.90
10453;DHT22;5274;51.992;8.518;2022-07-23T00:59:11;14.60;99.90
10453;DHT22;5274;51.992;8.518;2022-07-23T01:01:37;14.50;99.90
10453;DHT22;5274;51.992;8.518;2022-07-23T01:04:03;14.60;99.90
10453;DHT22;5274;51.992;8.518;2022-07-23T01:06:30;14.60;99.90
10453;DHT22;5274;51.992;8.518;2022-07-23T01:08:56;14.50;99.90
10453;DHT22;5274;51.992;8.518;2022-07-23T01:11:23;14.60;99.90
10453;DHT22;5274;51.992;8.518;2022-07-23T01:13:49;14.70;99.90
10453;DHT22;5274;51.992;8.518;2022-07-23T01:16:15;14.70;99.90
10453;DHT22;5274;51.992;8.518;2022-07-23T01:18:40;14.70;99.90
10453;DHT22;5274;51.992;8.518;2022-07-23T01:21:06;14.70;99.90
10453;DHT22;5274;51.992;8.518;2022-07-23T01:23:31;14.70;99.90
10453;DHT22;5274;51.992;8.518;2022-07-23T01:25:57;14.80;99.90
10453;DHT22;5274;51.992;8.518;2022-07-23T01:28:22;14.80;99.90
10453;DHT22;5274;51.992;8.518;2022-07-23T01:30:48;14.80;99.90
10453;DHT22;5274;51.992;8.518;2022-07-23T01:33:14;14.80;99.90
10453;DHT22;5274;51.992;8.518;2022-07-23T01:35:40;14.80;99.90
10453;DHT22;5274;51.992;8.518;2022-07-23T01:38:05;14.80;99.90
10453;DHT22;5274;51.992;8.518;2022-07-23T01:43:02;14.80;99.90
10453;DHT22;5274;51.992;8.518;2022-07-23T01:45:27;14.80;99.90
10453;DHT22;5274;51.992;8.518;2022-07-23T01:47:53;14.80;99.90
10453;DHT22;5274;51.992;8.518;2022-07-23T01:50:18;14.80;99.90
10453;DHT22;5274;51.992;8.518;2022-07-23T01:52:44;14.80;99.90
10453;DHT22;5274;51.992;8.518;2022-07-23T01:55:09;14.80;99.90
10453;DHT22;5274;51.992;8.518;2022-07-23T01:57:35;14.80;99.90
10453;DHT22;5274;51.992;8.518;2022-07-23T02:00:00;14.80;99.90
10453;DHT22;5274;51.992;8.518;2022-07-23T02:02:26;14.70;99.90
10453;DHT22;5274;51.992;8.518;2022-07-23T02:04:51;14.70;99.90
10453;DHT22;5274;51.992;8.518;2022-07-23T02:07:17;14.60;99.90
10453;DHT22;5274;51.992;8.518;2022-07-23T02:09:43;14.60;99.90
10453;DHT22;5274;51.992;8.518;2022-07-23T02:12:08;14.60;99.90
10453;DHT22;5274;51.992;8.518;2022-07-23T02:14:34;14.60;99.90
10453;DHT22;5274;51.992;8.518;2022-07-23T02:16:59;14.50;99.90
10453;DHT22;5274;51.992;8.518;2022-07-23T02:19:25;14.50;99.90
10453;DHT22;5274;51.992;8.518;2022-07-23T02:21:51;14.40;99.90
10453;DHT22;5274;51.992;8.518;2022-07-23T02:24:17;14.30;99.90
10453;DHT22;5274;51.992;8.518;2022-07-23T02:26:42;14.30;99.90
10453;DHT22;5274;51.992;8.518;2022-07-23T02:29:08;14.30;99.90
10453;DHT22;5274;51.992;8.518;2022-07-23T02:31:34;14.30;99.90
10453;DHT22;5274;51.992;8.518;2022-07-23T02:34:00;14.30;99.90
10453;DHT22;5274;51.992;8.518;2022-07-23T02:36:26;14.30;99.90
10453;DHT22;5274;51.992;8.518;2022-07-23T02:38:51;14.30;99.90
10453;DHT22;5274;51.992;8.518;2022-07-23T02:41:17;14.20;99.90
10453;DHT22;5274;51.992;8.518;2022-07-23T02:43:42;14.20;99.90
10453;DHT22;5274;51.992;8.518;2022-07-23T02:46:08;14.30;99.90
10453;DHT22;5274;51.992;8.518;2022-07-23T02:48:33;14.30;99.90
10453;DHT22;5274;51.992;8.518;2022-07-23T02:50:59;14.20;99.90
10453;DHT22;5274;51.992;8.518;2022-07-23T02:53:24;14.20;99.90
10453;DHT22;5274;51.992;8.518;2022-07-23T02:55:50;14.30;99.90
10453;DHT22;5274;51.992;8.518;2022-07-23T02:58:16;14.30;99.90
10453;DHT22;5274;51.992;8.518;2022-07-23T03:00:41;14.30;99.90
10453;DHT22;5274;51.992;8.518;2022-07-23T03:03:07;14.30;99.90
10453;DHT22;5274;51.992;8.518;2022-07-23T03:05:33;14.30;99.90
10453;DHT22;5274;51.992;8.518;2022-07-23T03:07:58;14.30;99.90
10453;DHT22;5274;51.992;8.518;2022-07-23T03:10:24;14.30;99.90
10453;DHT22;5274;51.992;8.518;2022-07-23T03:12:49;14.30;99.90
10453;DHT22;5274;51.992;8.518;2022-07-23T03:15:15;14.20;99.90
10453;DHT22;5274;51.992;8.518;2022-07-23T03:17:40;14.20;99.90
10453;DHT22;5274;51.992;8.518;2022-07-23T03:20:07;14.10;99.90
10453;DHT22;5274;51.992;8.518;2022-07-23T03:22:32;14.10;99.90
10453;DHT22;5274;51.992;8.518;2022-07-23T03:24:58;14.00;99.90
10453;DHT22;5274;51.992;8.518;2022-07-23T03:27:25;13.90;99.90
10453;DHT22;5274;51.992;8.518;2022-07-23T03:29:52;13.90;99.90
10453;DHT22;5274;51.992;8.518;2022-07-23T03:32:18;13.80;99.90
10453;DHT22;5274;51.992;8.518;2022-07-23T03:34:44;13.70;99.90
10453;DHT22;5274;51.992;8.518;2022-07-23T03:37:09;13.70;99.90
10453;DHT22;5274;51.992;8.518;2022-07-23T03:39:35;13.60;99.90
10453;DHT22;5274;51.992;8.518;2022-07-23T03:42:00;13.60;99.90
10453;DHT22;5274;51.992;8.518;2022-07-23T03:44:26;13.60;99.90
10453;DHT22;5274;51.992;8.518;2022-07-23T03:46:51;13.60;99.90
10453;DHT22;5274;51.992;8.518;2022-07-23T03:49:17;13.60;99.90
10453;DHT22;5274;51.992;8.518;2022-07-23T03:51:43;13.60;99.90
10453;DHT22;5274;51.992;8.518;2022-07-23T03:54:08;14.40;99.90
10453;DHT22;5274;51.992;8.518;2022-07-23T03:56:34;13.60;99.90
10453;DHT22;5274;51.992;8.518;2022-07-23T03:58:59;13.60;99.90
10453;DHT22;5274;51.992;8.518;2022-07-23T04:01:25;13.60;99.90
10453;DHT22;5274;51.992;8.518;2022-07-23T04:03:50;13.50;99.90
10453;DHT22;5274;51.992;8.518;2022-07-23T04:06:16;13.50;99.90
10453;DHT22;5274;51.992;8.518;2022-07-23T04:08:41;13.50;99.90
10453;DHT22;5274;51.992;8.518;2022-07-23T04:11:07;13.40;99.90
10453;DHT22;5274;51.992;8.518;2022-07-23T04:13:32;13.40;99.90
10453;DHT22;5274;51.992;8.518;2022-07-23T04:15:58;13.40;99.90
10453;DHT22;5274;51.992;8.518;2022-07-23T04:18:23;13.30;99.90
10453;DHT22;5274;51.992;8.518;2022-07-23T04:20:51;13.30;99.90
10453;DHT22;5274;51.992;8.518;2022-07-23T04:23:16;13.30;99.90
10453;DHT22;5274;51.992;8.518;2022-07-23T04:25:42;13.20;99.90
10453;DHT22;5274;51.992;8.518;2022-07-23T04:28:08;13.20;99.90
10453;DHT22;5274;51.992;8.518;2022-07-23T04:30:33;13.20;99.90
10453;DHT22;5274;51.992;8.518;2022-07-23T04:32:59;13.20;99.90
10453;DHT22;5274;51.992;8.518;2022-07-23T04:35:25;13.20;99.90
10453;DHT22;5274;51.992;8.518;2022-07-23T04:37:50;13.20;99.90
10453;DHT22;5274;51.992;8.518;2022-07-23T04:40:16;13.20;99.90
10453;DHT22;5274;51.992;8.518;2022-07-23T04:42:41;13.20;99.90
10453;DHT22;5274;51.992;8.518;2022-07-23T04:45:07;13.20;99.90
10453;DHT22;5274;51.992;8.518;2022-07-23T04:47:33;13.20;99.90
10453;DHT22;5274;51.992;8.518;2022-07-23T04:49:58;13.20;99.90
10453;DHT22;5274;51.992;8.518;2022-07-23T04:52:24;13.10;99.90
10453;DHT22;5274;51.992;8.518;2022-07-23T04:54:50;13.10;99.90
10453;DHT22;5274;51.992;8.518;2022-07-23T04:57:16;13.10;99.90
10453;DHT22;5274;51.992;8.518;2022-07-23T04:59:41;13.10;99.90
10453;DHT22;5274;51.992;8.518;2022-07-23T05:02:07;13.20;99.90
10453;DHT22;5274;51.992;8.518;2022-07-23T05:04:32;13.20;99.90
10453;DHT22;5274;51.992;8.518;2022-07-23T05:06:59;13.20;99.90
10453;DHT22;5274;51.992;8.518;2022-07-23T05:09:24;13.30;99.90
10453;DHT22;5274;51.992;8.518;2022-07-23T05:11:50;13.40;99.90
10453;DHT22;5274;51.992;8.518;2022-07-23T05:14:15;13.60;99.90
10453;DHT22;5274;51.992;8.518;2022-07-23T05:16:41;13.70;99.90
10453;DHT22;5274;51.992;8.518;2022-07-23T05:19:06;13.80;99.90
10453;DHT22;5274;51.992;8.518;2022-07-23T05:21:32;14.00;99.90
10453;DHT22;5274;51.992;8.518;2022-07-23T05:23:58;14.00;99.90
10453;DHT22;5274;51.992;8.518;2022-07-23T05:26:24;14.10;99.90
10453;DHT22;5274;51.992;8.518;2022-07-23T05:28:50;14.10;99.90
10453;DHT22;5274;51.992;8.518;2022-07-23T05:31:16;14.10;99.90
10453;DHT22;5274;51.992;8.518;2022-07-23T05:33:41;14.10;99.90
10453;DHT22;5274;51.992;8.518;2022-07-23T05:36:07;14.00;99.90
10453;DHT22;5274;51.992;8.518;2022-07-23T05:38:33;14.00;99.90
10453;DHT22;5274;51.992;8.518;2022-07-23T05:40:59;14.00;99.90
10453;DHT22;5274;51.992;8.518;2022-07-23T05:43:24;14.10;99.90
10453;DHT22;5274;51.992;8.518;2022-07-23T05:45:50;14.10;99.90
10453;DHT22;5274;51.992;8.518;2022-07-23T05:48:15;14.20;99.90
10453;DHT22;5274;51.992;8.518;2022-07-23T05:50:41;14.20;99.90
10453;DHT22;5274;51.992;8.518;2022-07-23T05:53:06;14.30;99.90
10453;DHT22;5274;51.992;8.518;2022-07-23T05:55:32;14.30;99.90
10453;DHT22;5274;51.992;8.518;2022-07-23T05:57:59;14.40;99.90
10453;DHT22;5274;51.992;8.518;2022-07-23T06:00:25;14.40;99.90
10453;DHT22;5274;51.992;8.518;2022-07-23T06:02:51;14.50;99.90
10453;DHT22;5274;51.992;8.518;2022-07-23T06:05:16;14.50;99.90
10453;DHT22;5274;51.992;8.518;2022-07-23T06:07:42;14.60;99.90
10453;DHT22;5274;51.992;8.518;2022-07-23T06:10:08;14.60;99.90
10453;DHT22;5274;51.992;8.518;2022-07-23T06:12:34;14.60;99.90
10453;DHT22;5274;51.992;8.518;2022-07-23T06:15:00;14.70;99.90
10453;DHT22;5274;51.992;8.518;2022-07-23T06:17:26;14.70;99.90
10453;DHT22;5274;51.992;8.518;2022-07-23T06:19:52;14.70;99.90
10453;DHT22;5274;51.992;8.518;2022-07-23T06:22:18;14.80;99.90
10453;DHT22;5274;51.992;8.518;2022-07-23T06:24:43;14.80;99.90
10453;DHT22;5274;51.992;8.518;2022-07-23T06:27:09;14.90;99.90
10453;DHT22;5274;51.992;8.518;2022-07-23T06:29:34;15.00;99.90
10453;DHT22;5274;51.992;8.518;2022-07-23T06:32:00;15.00;99.90
10453;DHT22;5274;51.992;8.518;2022-07-23T06:34:25;15.20;99.90
10453;DHT22;5274;51.992;8.518;2022-07-23T06:36:51;15.20;96.30
10453;DHT22;5274;51.992;8.518;2022-07-23T06:39:17;15.30;99.90
10453;DHT22;5274;51.992;8.518;2022-07-23T06:41:42;15.30;99.90
10453;DHT22;5274;51.992;8.518;2022-07-23T06:44:08;15.40;83.40
10453;DHT22;5274;51.992;8.518;2022-07-23T06:46:33;15.50;1.00
10453;DHT22;5274;51.992;8.518;2022-07-23T06:48:59;15.60;66.10
10453;DHT22;5274;51.992;8.518;2022-07-23T06:51:25;15.60;98.30
10453;DHT22;5274;51.992;8.518;2022-07-23T06:53:50;15.70;94.50
10453;DHT22;5274;51.992;8.518;2022-07-23T06:56:16;15.70;30.00
10453;DHT22;5274;51.992;8.518;2022-07-23T06:58:41;15.70;71.00
10453;DHT22;5274;51.992;8.518;2022-07-23T07:01:07;15.80;34.40
10453;DHT22;5274;51.992;8.518;2022-07-23T07:03:32;15.80;33.80
10453;DHT22;5274;51.992;8.518;2022-07-23T07:05:58;15.90;55.70
10453;DHT22;5274;51.992;8.518;2022-07-23T07:08:23;16.00;82.00
10453;DHT22;5274;51.992;8.518;2022-07-23T07:10:49;16.10;32.70
10453;DHT22;5274;51.992;8.518;2022-07-23T07:13:14;16.10;16.70
10453;DHT22;5274;51.992;8.518;2022-07-23T07:15:40;16.30;19.00
10453;DHT22;5274;51.992;8.518;2022-07-23T07:18:06;16.30;1.00
10453;DHT22;5274;51.992;8.518;2022-07-23T07:20:31;16.40;1.00
10453;DHT22;5274;51.992;8.518;2022-07-23T07:22:57;16.40;1.00
10453;DHT22;5274;51.992;8.518;2022-07-23T07:25:22;16.40;1.00
10453;DHT22;5274;51.992;8.518;2022-07-23T07:27:48;16.40;1.00
10453;DHT22;5274;51.992;8.518;2022-07-23T07:30:13;16.50;1.00
10453;DHT22;5274;51.992;8.518;2022-07-23T07:32:39;16.70;1.00
10453;DHT22;5274;51.992;8.518;2022-07-23T07:35:06;16.90;1.00
10453;DHT22;5274;51.992;8.518;2022-07-23T07:37:32;17.00;1.00
10453;DHT22;5274;51.992;8.518;2022-07-23T07:39:58;17.20;1.00
10453;DHT22;5274;51.992;8.518;2022-07-23T07:42:23;17.30;99.90
10453;DHT22;5274;51.992;8.518;2022-07-23T07:44:48;17.30;1.00
10453;DHT22;5274;51.992;8.518;2022-07-23T07:47:14;17.50;99.90
10453;DHT22;5274;51.992;8.518;2022-07-23T07:49:44;17.50;1.00
10453;DHT22;5274;51.992;8.518;2022-07-23T07:52:10;17.60;1.00
10453;DHT22;5274;51.992;8.518;2022-07-23T07:54:36;17.60;1.00
10453;DHT22;5274;51.992;8.518;2022-07-23T07:57:01;17.60;1.00
10453;DHT22;5274;51.992;8.518;2022-07-23T07:59:27;17.90;99.90
10453;DHT22;5274;51.992;8.518;2022-07-23T08:01:53;18.10;1.00
10453;DHT22;5274;51.992;8.518;2022-07-23T08:04:18;18.10;1.00
10453;DHT22;5274;51.992;8.518;2022-07-23T08:06:44;18.20;1.00
10453;DHT22;5274;51.992;8.518;2022-07-23T08:09:09;18.30;1.00
10453;DHT22;5274;51.992;8.518;2022-07-23T08:11:35;18.20;20.80
10453;DHT22;5274;51.992;8.518;2022-07-23T08:14:01;18.00;1.00
10453;DHT22;5274;51.992;8.518;2022-07-23T08:16:26;18.00;1.00
10453;DHT22;5274;51.992;8.518;2022-07-23T08:18:52;17.90;1.00
10453;DHT22;5274;51.992;8.518;2022-07-23T08:21:17;18.00;1.00
10453;DHT22;5274;51.992;8.518;2022-07-23T08:23:44;17.80;36.40
10453;DHT22;5274;51.992;8.518;2022-07-23T08:26:09;17.80;99.90
10453;DHT22;5274;51.992;8.518;2022-07-23T08:28:35;18.10;99.90
10453;DHT22;5274;51.992;8.518;2022-07-23T08:31:00;18.30;99.90
10453;DHT22;5274;51.992;8.518;2022-07-23T08:33:26;18.70;99.90
10453;DHT22;5274;51.992;8.518;2022-07-23T08:35:52;19.20;99.90
10453;DHT22;5274;51.992;8.518;2022-07-23T08:38:20;19.30;1.00
10453;DHT22;5274;51.992;8.518;2022-07-23T08:40:49;19.40;1.00
10453;DHT22;5274;51.992;8.518;2022-07-23T08:43:22;19.50;1.00
10453;DHT22;5274;51.992;8.518;2022-07-23T08:45:51;19.00;1.00
10453;DHT22;5274;51.992;8.518;2022-07-23T08:48:19;19.00;1.00
10453;DHT22;5274;51.992;8.518;2022-07-23T08:50:47;19.50;1.00
10453;DHT22;5274;51.992;8.518;2022-07-23T08:53:14;19.90;1.00
10453;DHT22;5274;51.992;8.518;2022-07-23T08:55:43;19.90;1.00
10453;DHT22;5274;51.992;8.518;2022-07-23T08:58:10;20.00;1.00
10453;DHT22;5274;51.992;8.518;2022-07-23T09:00:35;19.60;1.00
10453;DHT22;5274;51.992;8.518;2022-07-23T09:03:01;19.40;1.00
10453;DHT22;5274;51.992;8.518;2022-07-23T09:05:26;19.60;1.00
10453;DHT22;5274;51.992;8.518;2022-07-23T09:08:14;19.50;1.00
10453;DHT22;5274;51.992;8.518;2022-07-23T09:10:57;19.60;1.00
10453;DHT22;5274;51.992;8.518;2022-07-23T09:13:33;19.40;1.00
10453;DHT22;5274;51.992;8.518;2022-07-23T09:18:39;19.60;1.00
10453;DHT22;5274;51.992;8.518;2022-07-23T09:23:43;19.60;1.00
10453;DHT22;5274;51.992;8.518;2022-07-23T09:26:32;19.80;1.00
10453;DHT22;5274;51.992;8.518;2022-07-23T09:29:13;20.00;1.00
10453;DHT22;5274;51.992;8.518;2022-07-23T09:34:41;20.60;1.00
10453;DHT22;5274;51.992;8.518;2022-07-23T09:37:14;20.50;1.00
10453;DHT22;5274;51.992;8.518;2022-07-23T09:39:41;20.90;1.00
10453;DHT22;5274;51.992;8.518;2022-07-23T09:42:15;20.30;1.00
10453;DHT22;5274;51.992;8.518;2022-07-23T09:44:52;20.70;1.00
10453;DHT22;5274;51.992;8.518;2022-07-23T09:47:18;20.50;1.00
10453;DHT22;5274;51.992;8.518;2022-07-23T09:50:06;20.60;1.00
10453;DHT22;5274;51.992;8.518;2022-07-23T09:52:35;20.70;1.00
10453;DHT22;5274;51.992;8.518;2022-07-23T09:55:04;20.40;1.00
10453;DHT22;5274;51.992;8.518;2022-07-23T09:57:31;20.30;1.00
10453;DHT22;5274;51.992;8.518;2022-07-23T09:59:58;20.20;1.00
10453;DHT22;5274;51.992;8.518;2022-07-23T10:02:25;20.00;1.00
10453;DHT22;5274;51.992;8.518;2022-07-23T10:04:53;20.10;1.00
10453;DHT22;5274;51.992;8.518;2022-07-23T10:07:22;20.30;1.00
10453;DHT22;5274;51.992;8.518;2022-07-23T10:09:50;20.60;1.00
10453;DHT22;5274;51.992;8.518;2022-07-23T10:12:19;20.90;1.00
10453;DHT22;5274;51.992;8.518;2022-07-23T10:14:52;21.40;1.00
10453;DHT22;5274;51.992;8.518;2022-07-23T10:17:18;21.80;1.00
10453;DHT22;5274;51.992;8.518;2022-07-23T10:19:44;21.90;1.00
10453;DHT22;5274;51.992;8.518;2022-07-23T10:22:13;21.60;99.90
10453;DHT22;5274;51.992;8.518;2022-07-23T10:24:58;21.40;52.10
10453;DHT22;5274;51.992;8.518;2022-07-23T10:27:51;20.90;23.40
10453;DHT22;5274;51.992;8.518;2022-07-23T10:30:40;20.80;1.00
10453;DHT22;5274;51.992;8.518;2022-07-23T10:35:48;21.10;1.00
10453;DHT22;5274;51.992;8.518;2022-07-23T10:38:28;21.60;1.00
10453;DHT22;5274;51.992;8.518;2022-07-23T10:41:00;21.80;79.70
10453;DHT22;5274;51.992;8.518;2022-07-23T10:43:27;22.40;62.70
10453;DHT22;5274;51.992;8.518;2022-07-23T10:45:54;22.20;16.20
10453;DHT22;5274;51.992;8.518;2022-07-23T10:48:21;21.80;99.90
10453;DHT22;5274;51.992;8.518;2022-07-23T10:51:14;21.20;99.90
10453;DHT22;5274;51.992;8.518;2022-07-23T10:53:53;21.30;99.90
10453;DHT22;5274;51.992;8.518;2022-07-23T10:59:22;21.10;1.00
10453;DHT22;5274;51.992;8.518;2022-07-23T11:01:47;21.10;1.00
10453;DHT22;5274;51.992;8.518;2022-07-23T11:04:13;21.20;1.00
10453;DHT22;5274;51.992;8.518;2022-07-23T11:09:27;21.40;1.00
10453;DHT22;5274;51.992;8.518;2022-07-23T11:15:05;21.20;1.00
10453;DHT22;5274;51.992;8.518;2022-07-23T11:17:33;21.40;1.00
10453;DHT22;5274;51.992;8.518;2022-07-23T11:22:48;21.40;1.00
10453;DHT22;5274;51.992;8.518;2022-07-23T11:28:07;21.90;1.00
10453;DHT22;5274;51.992;8.518;2022-07-23T11:30:37;22.20;1.00
10453;DHT22;5274;51.992;8.518;2022-07-23T11:35:39;21.90;1.00
10453;DHT22;5274;51.992;8.518;2022-07-23T11:38:18;22.20;1.00
10453;DHT22;5274;51.992;8.518;2022-07-23T11:40:52;22.40;1.00
10453;DHT22;5274;51.992;8.518;2022-07-23T11:43:18;22.80;1.00
10453;DHT22;5274;51.992;8.518;2022-07-23T11:45:46;24.90;1.00
10453;DHT22;5274;51.992;8.518;2022-07-23T11:48:18;27.20;1.00
10453;DHT22;5274;51.992;8.518;2022-07-23T11:50:43;28.50;1.00
10453;DHT22;5274;51.992;8.518;2022-07-23T11:53:09;29.40;1.00
10453;DHT22;5274;51.992;8.518;2022-07-23T11:55:35;29.00;1.00
10453;DHT22;5274;51.992;8.518;2022-07-23T11:58:00;28.60;1.00
10453;DHT22;5274;51.992;8.518;2022-07-23T12:00:28;28.90;1.00
10453;DHT22;5274;51.992;8.518;2022-07-23T12:02:57;29.80;99.90
10453;DHT22;5274;51.992;8.518;2022-07-23T12:05:32;29.30;1.00
10453;DHT22;5274;51.992;8.518;2022-07-23T12:07:59;29.00;1.00
10453;DHT22;5274;51.992;8.518;2022-07-23T12:10:33;30.60;1.00
10453;DHT22;5274;51.992;8.518;2022-07-23T12:13:01;32.80;1.00
10453;DHT22;5274;51.992;8.518;2022-07-23T12:15:33;33.40;1.00
10453;DHT22;5274;51.992;8.518;2022-07-23T12:18:00;32.70;1.00
10453;DHT22;5274;51.992;8.518;2022-07-23T12:20:30;32.10;1.00
10453;DHT22;5274;51.992;8.518;2022-07-23T12:23:01;33.60;1.00
10453;DHT22;5274;51.992;8.518;2022-07-23T12:25:33;36.30;1.00
10453;DHT22;5274;51.992;8.518;2022-07-23T12:28:10;38.30;99.90
10453;DHT22;5274;51.992;8.518;2022-07-23T12:30:48;37.60;99.90
10453;DHT22;5274;51.992;8.518;2022-07-23T12:33:21;36.20;99.90
10453;DHT22;5274;51.992;8.518;2022-07-23T12:35:47;36.80;99.90
10453;DHT22;5274;51.992;8.518;2022-07-23T12:38:20;39.50;99.90
10453;DHT22;5274;51.992;8.518;2022-07-23T12:40:48;39.10;1.00
10453;DHT22;5274;51.992;8.518;2022-07-23T12:43:26;39.80;1.00
10453;DHT22;5274;51.992;8.518;2022-07-23T12:46:11;37.90;1.00
10453;DHT22;5274;51.992;8.518;2022-07-23T12:48:51;37.10;99.90
10453;DHT22;5274;51.992;8.518;2022-07-23T12:51:30;36.80;99.90
10453;DHT22;5274;51.992;8.518;2022-07-23T12:54:08;39.70;99.90
10453;DHT22;5274;51.992;8.518;2022-07-23T12:56:36;41.90;99.90
10453;DHT22;5274;51.992;8.518;2022-07-23T12:59:09;41.80;12.40
10453;DHT22;5274;51.992;8.518;2022-07-23T13:01:40;42.60;99.90
10453;DHT22;5274;51.992;8.518;2022-07-23T13:04:14;41.00;1.00
10453;DHT22;5274;51.992;8.518;2022-07-23T13:06:51;42.40;15.90
10453;DHT22;5274;51.992;8.518;2022-07-23T13:09:19;42.30;1.00
10453;DHT22;5274;51.992;8.518;2022-07-23T13:11:46;42.20;26.70
10453;DHT22;5274;51.992;8.518;2022-07-23T13:14:12;40.40;1.00
10453;DHT22;5274;51.992;8.518;2022-07-23T13:16:39;41.80;32.10
10453;DHT22;5274;51.992;8.518;2022-07-23T13:19:05;41.10;1.00
10453;DHT22;5274;51.992;8.518;2022-07-23T13:21:31;39.10;1.00
10453;DHT22;5274;51.992;8.518;2022-07-23T13:23:57;40.60;99.90
10453;DHT22;5274;51.992;8.518;2022-07-23T13:26:23;41.10;99.90
10453;DHT22;5274;51.992;8.518;2022-07-23T13:28:49;43.90;99.90
10453;DHT22;5274;51.992;8.518;2022-07-23T13:31:16;40.20;1.00
10453;DHT22;5274;51.992;8.518;2022-07-23T13:33:42;37.60;1.00
10453;DHT22;5274;51.992;8.518;2022-07-23T13:36:07;40.30;1.00
10453;DHT22;5274;51.992;8.518;2022-07-23T13:38:33;39.20;99.90
10453;DHT22;5274;51.992;8.518;2022-07-23T13:40:58;41.60;99.90
10453;DHT22;5274;51.992;8.518;2022-07-23T13:43:25;42.00;1.00
10453;DHT22;5274;51.992;8.518;2022-07-23T13:45:51;40.90;99.90
10453;DHT22;5274;51.992;8.518;2022-07-23T13:48:18;40.60;66.00
10453;DHT22;5274;51.992;8.518;2022-07-23T13:50:45;42.20;99.90
10453;DHT22;5274;51.992;8.518;2022-07-23T13:53:14;44.70;1.00
10453;DHT22;5274;51.992;8.518;2022-07-23T13:55:41;42.00;1.00
10453;DHT22;5274;51.992;8.518;2022-07-23T13:58:08;41.50;99.90
10453;DHT22;5274;51.992;8.518;2022-07-23T14:00:36;40.80;57.00
10453;DHT22;5274;51.992;8.518;2022-07-23T14:03:03;37.70;99.90
10453;DHT22;5274;51.992;8.518;2022-07-23T14:05:28;40.40;99.90
10453;DHT22;5274;51.992;8.518;2022-07-23T14:07:54;41.90;99.90
10453;DHT22;5274;51.992;8.518;2022-07-23T14:10:21;40.90;99.90
10453;DHT22;5274;51.992;8.518;2022-07-23T14:12:47;42.00;1.00
10453;DHT22;5274;51.992;8.518;2022-07-23T14:15:13;41.80;1.00
10453;DHT22;5274;51.992;8.518;2022-07-23T14:17:40;41.80;99.90
10453;DHT22;5274;51.992;8.518;2022-07-23T14:20:08;40.80;99.90
10453;DHT22;5274;51.992;8.518;2022-07-23T14:22:33;38.00;99.90
10453;DHT22;5274;51.992;8.518;2022-07-23T14:24:59;37.30;99.90
10453;DHT22;5274;51.992;8.518;2022-07-23T14:27:26;38.10;1.00
10453;DHT22;5274;51.992;8.518;2022-07-23T14:29:52;39.30;99.90
10453;DHT22;5274;51.992;8.518;2022-07-23T14:32:18;40.90;99.90
10453;DHT22;5274;51.992;8.518;2022-07-23T14:34:43;39.90;1.00
10453;DHT22;5274;51.992;8.518;2022-07-23T14:37:10;38.70;99.90
10453;DHT22;5274;51.992;8.518;2022-07-23T14:39:36;38.90;99.90
10453;DHT22;5274;51.992;8.518;2022-07-23T14:42:02;37.20;99.90
10453;DHT22;5274;51.992;8.518;2022-07-23T14:44:28;38.40;1.00
10453;DHT22;5274;51.992;8.518;2022-07-23T14:46:53;40.00;1.00
10453;DHT22;5274;51.992;8.518;2022-07-23T14:49:18;39.00;1.00
10453;DHT22;5274;51.992;8.518;2022-07-23T14:51:44;41.30;1.00
10453;DHT22;5274;51.992;8.518;2022-07-23T14:54:10;41.30;1.00
10453;DHT22;5274;51.992;8.518;2022-07-23T14:56:36;40.60;99.90
10453;DHT22;5274;51.992;8.518;2022-07-23T14:59:03;39.00;1.00
10453;DHT22;5274;51.992;8.518;2022-07-23T15:01:28;40.00;1.00
10453;DHT22;5274;51.992;8.518;2022-07-23T15:03:54;40.00;1.00
10453;DHT22;5274;51.992;8.518;2022-07-23T15:06:19;38.70;99.90
10453;DHT22;5274;51.992;8.518;2022-07-23T15:08:45;37.60;99.90
10453;DHT22;5274;51.992;8.518;2022-07-23T15:11:10;38.90;99.90
10453;DHT22;5274;51.992;8.518;2022-07-23T15:13:37;40.60;1.00
10453;DHT22;5274;51.992;8.518;2022-07-23T15:16:04;40.00;1.00
10453;DHT22;5274;51.992;8.518;2022-07-23T15:18:30;40.00;1.00
10453;DHT22;5274;51.992;8.518;2022-07-23T15:20:56;38.90;1.00
10453;DHT22;5274;51.992;8.518;2022-07-23T15:23:22;37.30;1.00
10453;DHT22;5274;51.992;8.518;2022-07-23T15:25:47;35.60;1.00
10453;DHT22;5274;51.992;8.518;2022-07-23T15:28:13;37.00;99.90
10453;DHT22;5274;51.992;8.518;2022-07-23T15:30:38;37.30;1.00
10453;DHT22;5274;51.992;8.518;2022-07-23T15:33:04;39.30;1.00
10453;DHT22;5274;51.992;8.518;2022-07-23T15:35:31;41.40;99.90
10453;DHT22;5274;51.992;8.518;2022-07-23T15:37:56;39.60;99.90
10453;DHT22;5274;51.992;8.518;2022-07-23T15:40:22;41.70;99.90
10453;DHT22;5274;51.992;8.518;2022-07-23T15:42:47;40.70;1.00
10453;DHT22;5274;51.992;8.518;2022-07-23T15:45:13;41.10;1.00
10453;DHT22;5274;51.992;8.518;2022-07-23T15:47:40;39.20;1.00
10453;DHT22;5274;51.992;8.518;2022-07-23T15:50:06;37.40;99.90
10453;DHT22;5274;51.992;8.518;2022-07-23T15:52:32;37.50;10.00
10453;DHT22;5274;51.992;8.518;2022-07-23T15:54:58;38.90;1.00
10453;DHT22;5274;51.992;8.518;2022-07-23T15:57:23;38.40;1.00
10453;DHT22;5274;51.992;8.518;2022-07-23T15:59:49;36.40;1.00
10453;DHT22;5274;51.992;8.518;2022-07-23T16:02:14;38.50;1.00
10453;DHT22;5274;51.992;8.518;2022-07-23T16:04:41;39.90;1.00
10453;DHT22;5274;51.992;8.518;2022-07-23T16:07:06;39.40;99.90
10453;DHT22;5274;51.992;8.518;2022-07-23T16:09:32;36.60;1.00
10453;DHT22;5274;51.992;8.518;2022-07-23T16:11:58;34.10;99.90
10453;DHT22;5274;51.992;8.518;2022-07-23T16:14:23;32.70;99.90
10453;DHT22;5274;51.992;8.518;2022-07-23T16:16:49;34.30;1.00
10453;DHT22;5274;51.992;8.518;2022-07-23T16:19:14;36.70;1.00
10453;DHT22;5274;51.992;8.518;2022-07-23T16:21:40;37.90;57.70